sensor_id;sensor_type;location;lat;lon;timestamp;P1;durP1;ratioP1;P2;durP2;ratioP2
67554;SDS011;54385;53.516;49.456;2023-02-18T00:02:18;13.77;;;5.90;;
67554;SDS011;54385;53.516;49.456;2023-02-18T00:04:45;16.73;;;8.30;;
67554;SDS011;54385;53.516;49.456;2023-02-18T00:07:11;13.43;;;7.07;;
67554;SDS011;54385;53.516;49.456;2023-02-18T00:09:37;18.15;;;7.60;;
67554;SDS011;54385;53.516;49.456;2023-02-18T00:12:04;13.02;;;6.70;;
67554;SDS011;54385;53.516;49.456;2023-02-18T00:14:31;17.52;;;7.82;;
67554;SDS011;54385;53.516;49.456;2023-02-18T00:16:57;15.00;;;6.18;;
67554;SDS011;54385;53.516;49.456;2023-02-18T00:19:23;14.07;;;7.03;;
67554;SDS011;54385;53.516;49.456;2023-02-18T00:21:50;15.77;;;7.20;;
67554;SDS011;54385;53.516;49.456;2023-02-18T00:24:16;14.70;;;7.22;;
67554;SDS011;54385;53.516;49.456;2023-02-18T00:26:43;15.48;;;7.07;;
67554;SDS011;54385;53.516;49.456;2023-02-18T00:29:10;16.20;;;6.85;;
67554;SDS011;54385;53.516;49.456;2023-02-18T00:31:37;13.90;;;7.45;;
67554;SDS011;54385;53.516;49.456;2023-02-18T00:34:05;12.90;;;7.35;;
67554;SDS011;54385;53.516;49.456;2023-02-18T00:36:31;14.48;;;8.25;;
67554;SDS011;54385;53.516;49.456;2023-02-18T00:38:59;14.82;;;7.55;;
67554;SDS011;54385;53.516;49.456;2023-02-18T00:41:28;20.45;;;5.90;;
67554;SDS011;54385;53.516;49.456;2023-02-18T00:43:55;15.32;;;7.38;;
67554;SDS011;54385;53.516;49.456;2023-02-18T00:46:22;15.07;;;7.60;;
67554;SDS011;54385;53.516;49.456;2023-02-18T00:48:49;18.88;;;7.35;;
67554;SDS011;54385;53.516;49.456;2023-02-18T00:51:16;14.45;;;7.13;;
67554;SDS011;54385;53.516;49.456;2023-02-18T00:53:43;13.93;;;6.95;;
67554;SDS011;54385;53.516;49.456;2023-02-18T00:56:09;10.55;;;5.70;;
67554;SDS011;54385;53.516;49.456;2023-02-18T00:58:36;10.38;;;5.53;;
67554;SDS011;54385;53.516;49.456;2023-02-18T01:01:04;10.27;;;6.15;;
67554;SDS011;54385;53.516;49.456;2023-02-18T01:03:31;13.73;;;7.03;;
67554;SDS011;54385;53.516;49.456;2023-02-18T01:05:57;15.98;;;8.25;;
67554;SDS011;54385;53.516;49.456;2023-02-18T01:08:24;12.32;;;6.70;;
67554;SDS011;54385;53.516;49.456;2023-02-18T01:10:52;16.77;;;6.93;;
67554;SDS011;54385;53.516;49.456;2023-02-18T01:13:20;19.02;;;7.10;;
67554;SDS011;54385;53.516;49.456;2023-02-18T01:15:48;18.13;;;7.50;;
67554;SDS011;54385;53.516;49.456;2023-02-18T01:18:15;15.02;;;7.25;;
67554;SDS011;54385;53.516;49.456;2023-02-18T01:20:45;12.95;;;7.43;;
67554;SDS011;54385;53.516;49.456;2023-02-18T01:23:15;21.35;;;7.25;;
67554;SDS011;54385;53.516;49.456;2023-02-18T01:25:45;14.70;;;7.65;;
67554;SDS011;54385;53.516;49.456;2023-02-18T01:28:12;14.13;;;6.32;;
67554;SDS011;54385;53.516;49.456;2023-02-18T01:30:43;13.98;;;7.65;;
67554;SDS011;54385;53.516;49.456;2023-02-18T01:33:10;15.75;;;7.13;;
67554;SDS011;54385;53.516;49.456;2023-02-18T01:35:37;12.93;;;7.28;;
67554;SDS011;54385;53.516;49.456;2023-02-18T01:38:04;15.90;;;6.50;;
67554;SDS011;54385;53.516;49.456;2023-02-18T01:40:31;14.18;;;6.30;;
67554;SDS011;54385;53.516;49.456;2023-02-18T01:42:58;12.55;;;6.13;;
67554;SDS011;54385;53.516;49.456;2023-02-18T01:47:54;13.65;;;6.40;;
67554;SDS011;54385;53.516;49.456;2023-02-18T01:52:47;13.27;;;7.65;;
67554;SDS011;54385;53.516;49.456;2023-02-18T01:55:17;18.05;;;7.32;;
67554;SDS011;54385;53.516;49.456;2023-02-18T01:57:43;12.05;;;6.25;;
67554;SDS011;54385;53.516;49.456;2023-02-18T02:00:12;14.68;;;6.68;;
67554;SDS011;54385;53.516;49.456;2023-02-18T02:02:43;14.25;;;7.13;;
67554;SDS011;54385;53.516;49.456;2023-02-18T02:05:11;9.35;;;5.20;;
67554;SDS011;54385;53.516;49.456;2023-02-18T02:07:39;12.60;;;6.80;;
67554;SDS011;54385;53.516;49.456;2023-02-18T02:10:11;15.63;;;6.65;;
67554;SDS011;54385;53.516;49.456;2023-02-18T02:12:52;15.18;;;7.70;;
67554;SDS011;54385;53.516;49.456;2023-02-18T02:18:29;15.65;;;7.20;;
67554;SDS011;54385;53.516;49.456;2023-02-18T02:27:19;16.05;;;8.60;;
67554;SDS011;54385;53.516;49.456;2023-02-18T02:30:00;17.88;;;7.82;;
67554;SDS011;54385;53.516;49.456;2023-02-18T02:35:23;10.82;;;6.22;;
67554;SDS011;54385;53.516;49.456;2023-02-18T02:37:55;11.98;;;6.70;;
67554;SDS011;54385;53.516;49.456;2023-02-18T02:43:52;10.05;;;5.63;;
67554;SDS011;54385;53.516;49.456;2023-02-18T02:46:35;9.05;;;5.57;;
67554;SDS011;54385;53.516;49.456;2023-02-18T02:54:47;13.52;;;7.03;;
67554;SDS011;54385;53.516;49.456;2023-02-18T02:59:47;15.05;;;7.53;;
67554;SDS011;54385;53.516;49.456;2023-02-18T03:08:07;13.05;;;6.82;;
67554;SDS011;54385;53.516;49.456;2023-02-18T03:10:59;15.82;;;8.10;;
67554;SDS011;54385;53.516;49.456;2023-02-18T03:13:33;13.38;;;7.25;;
67554;SDS011;54385;53.516;49.456;2023-02-18T03:16:22;18.20;;;8.38;;
67554;SDS011;54385;53.516;49.456;2023-02-18T03:19:11;16.73;;;8.20;;
67554;SDS011;54385;53.516;49.456;2023-02-18T03:21:52;13.80;;;8.05;;
67554;SDS011;54385;53.516;49.456;2023-02-18T03:24:29;17.98;;;8.57;;
67554;SDS011;54385;53.516;49.456;2023-02-18T03:27:14;18.85;;;8.27;;
67554;SDS011;54385;53.516;49.456;2023-02-18T03:29:45;19.60;;;7.25;;
67554;SDS011;54385;53.516;49.456;2023-02-18T03:32:16;15.55;;;8.70;;
67554;SDS011;54385;53.516;49.456;2023-02-18T03:34:47;18.42;;;8.65;;
67554;SDS011;54385;53.516;49.456;2023-02-18T03:37:18;15.27;;;7.82;;
67554;SDS011;54385;53.516;49.456;2023-02-18T03:39:47;11.98;;;6.10;;
67554;SDS011;54385;53.516;49.456;2023-02-18T03:42:24;16.98;;;8.10;;
67554;SDS011;54385;53.516;49.456;2023-02-18T03:44:57;16.35;;;7.50;;
67554;SDS011;54385;53.516;49.456;2023-02-18T03:47:24;19.15;;;6.97;;
67554;SDS011;54385;53.516;49.456;2023-02-18T03:49:50;13.32;;;7.75;;
67554;SDS011;54385;53.516;49.456;2023-02-18T03:52:19;17.83;;;8.23;;
67554;SDS011;54385;53.516;49.456;2023-02-18T03:54:46;13.75;;;7.32;;
67554;SDS011;54385;53.516;49.456;2023-02-18T03:57:15;16.48;;;7.35;;
67554;SDS011;54385;53.516;49.456;2023-02-18T03:59:41;13.75;;;6.07;;
67554;SDS011;54385;53.516;49.456;2023-02-18T04:02:17;15.45;;;7.25;;
67554;SDS011;54385;53.516;49.456;2023-02-18T04:04:46;18.35;;;7.18;;
67554;SDS011;54385;53.516;49.456;2023-02-18T04:07:14;14.25;;;7.75;;
67554;SDS011;54385;53.516;49.456;2023-02-18T04:10:11;20.95;;;8.30;;
67554;SDS011;54385;53.516;49.456;2023-02-18T04:12:45;13.82;;;7.03;;
67554;SDS011;54385;53.516;49.456;2023-02-18T04:15:11;15.23;;;7.25;;
67554;SDS011;54385;53.516;49.456;2023-02-18T04:17:44;12.55;;;6.40;;
67554;SDS011;54385;53.516;49.456;2023-02-18T04:20:14;17.15;;;8.07;;
67554;SDS011;54385;53.516;49.456;2023-02-18T04:22:41;13.65;;;8.82;;
67554;SDS011;54385;53.516;49.456;2023-02-18T04:25:14;14.82;;;6.85;;
67554;SDS011;54385;53.516;49.456;2023-02-18T04:27:56;12.68;;;7.10;;
67554;SDS011;54385;53.516;49.456;2023-02-18T04:30:30;17.58;;;8.68;;
67554;SDS011;54385;53.516;49.456;2023-02-18T04:33:20;14.18;;;6.78;;
67554;SDS011;54385;53.516;49.456;2023-02-18T04:35:56;18.67;;;7.70;;
67554;SDS011;54385;53.516;49.456;2023-02-18T04:38:25;15.60;;;8.02;;
67554;SDS011;54385;53.516;49.456;2023-02-18T04:40:55;16.55;;;7.60;;
67554;SDS011;54385;53.516;49.456;2023-02-18T04:43:41;13.55;;;7.07;;
67554;SDS011;54385;53.516;49.456;2023-02-18T04:46:19;14.43;;;7.65;;
67554;SDS011;54385;53.516;49.456;2023-02-18T04:49:07;16.30;;;7.88;;
67554;SDS011;54385;53.516;49.456;2023-02-18T04:51:44;15.85;;;8.38;;
67554;SDS011;54385;53.516;49.456;2023-02-18T04:54:28;16.50;;;8.60;;
67554;SDS011;54385;53.516;49.456;2023-02-18T05:00:23;19.83;;;9.82;;
67554;SDS011;54385;53.516;49.456;2023-02-18T05:06:53;21.33;;;8.23;;
67554;SDS011;54385;53.516;49.456;2023-02-18T05:09:46;19.35;;;7.68;;
67554;SDS011;54385;53.516;49.456;2023-02-18T05:12:17;18.40;;;8.93;;
67554;SDS011;54385;53.516;49.456;2023-02-18T05:15:00;19.33;;;8.57;;
67554;SDS011;54385;53.516;49.456;2023-02-18T05:17:47;17.75;;;7.28;;
67554;SDS011;54385;53.516;49.456;2023-02-18T05:23:36;17.25;;;9.18;;
67554;SDS011;54385;53.516;49.456;2023-02-18T05:26:18;18.58;;;8.38;;
67554;SDS011;54385;53.516;49.456;2023-02-18T05:28:48;20.73;;;9.25;;
67554;SDS011;54385;53.516;49.456;2023-02-18T05:31:30;14.60;;;8.02;;
67554;SDS011;54385;53.516;49.456;2023-02-18T05:34:27;17.05;;;7.60;;
67554;SDS011;54385;53.516;49.456;2023-02-18T05:37:03;15.50;;;8.00;;
67554;SDS011;54385;53.516;49.456;2023-02-18T05:39:43;15.93;;;8.02;;
67554;SDS011;54385;53.516;49.456;2023-02-18T05:45:14;10.02;;;5.90;;
67554;SDS011;54385;53.516;49.456;2023-02-18T05:48:06;13.25;;;7.10;;
67554;SDS011;54385;53.516;49.456;2023-02-18T05:50:47;15.15;;;7.05;;
67554;SDS011;54385;53.516;49.456;2023-02-18T05:53:50;12.43;;;7.22;;
67554;SDS011;54385;53.516;49.456;2023-02-18T05:56:42;15.10;;;6.80;;
67554;SDS011;54385;53.516;49.456;2023-02-18T05:59:17;16.30;;;8.02;;
67554;SDS011;54385;53.516;49.456;2023-02-18T06:01:58;26.20;;;19.20;;
67554;SDS011;54385;53.516;49.456;2023-02-18T06:04:36;17.17;;;8.15;;
67554;SDS011;54385;53.516;49.456;2023-02-18T06:07:26;12.27;;;5.75;;
67554;SDS011;54385;53.516;49.456;2023-02-18T06:10:14;9.63;;;6.05;;
67554;SDS011;54385;53.516;49.456;2023-02-18T06:12:57;15.27;;;7.70;;
67554;SDS011;54385;53.516;49.456;2023-02-18T06:15:49;15.95;;;7.25;;
67554;SDS011;54385;53.516;49.456;2023-02-18T06:18:50;9.85;;;5.20;;
67554;SDS011;54385;53.516;49.456;2023-02-18T06:21:37;12.40;;;6.30;;
67554;SDS011;54385;53.516;49.456;2023-02-18T06:24:27;14.32;;;7.47;;
67554;SDS011;54385;53.516;49.456;2023-02-18T06:27:18;12.77;;;6.20;;
67554;SDS011;54385;53.516;49.456;2023-02-18T06:30:43;15.32;;;7.05;;
67554;SDS011;54385;53.516;49.456;2023-02-18T06:33:55;12.10;;;5.95;;
67554;SDS011;54385;53.516;49.456;2023-02-18T06:36:58;13.20;;;6.25;;
67554;SDS011;54385;53.516;49.456;2023-02-18T06:39:24;14.00;;;6.63;;
67554;SDS011;54385;53.516;49.456;2023-02-18T06:41:54;12.90;;;6.97;;
67554;SDS011;54385;53.516;49.456;2023-02-18T06:44:45;15.98;;;6.03;;
67554;SDS011;54385;53.516;49.456;2023-02-18T06:47:32;13.73;;;6.22;;
67554;SDS011;54385;53.516;49.456;2023-02-18T06:50:03;10.68;;;5.85;;
67554;SDS011;54385;53.516;49.456;2023-02-18T06:56:20;12.80;;;6.07;;
67554;SDS011;54385;53.516;49.456;2023-02-18T06:58:49;9.65;;;5.10;;
67554;SDS011;54385;53.516;49.456;2023-02-18T07:01:18;12.25;;;6.13;;
67554;SDS011;54385;53.516;49.456;2023-02-18T07:03:45;11.90;;;7.18;;
67554;SDS011;54385;53.516;49.456;2023-02-18T07:06:17;13.52;;;7.30;;
67554;SDS011;54385;53.516;49.456;2023-02-18T07:08:44;14.68;;;7.18;;
67554;SDS011;54385;53.516;49.456;2023-02-18T07:11:11;12.43;;;6.78;;
67554;SDS011;54385;53.516;49.456;2023-02-18T07:13:45;12.98;;;6.18;;
67554;SDS011;54385;53.516;49.456;2023-02-18T07:16:14;10.88;;;4.97;;
67554;SDS011;54385;53.516;49.456;2023-02-18T07:18:41;13.75;;;6.75;;
67554;SDS011;54385;53.516;49.456;2023-02-18T07:21:17;15.70;;;6.82;;
67554;SDS011;54385;53.516;49.456;2023-02-18T07:27:49;14.27;;;6.78;;
67554;SDS011;54385;53.516;49.456;2023-02-18T07:30:17;13.63;;;6.55;;
67554;SDS011;54385;53.516;49.456;2023-02-18T07:33:01;12.50;;;5.78;;
67554;SDS011;54385;53.516;49.456;2023-02-18T07:35:45;14.30;;;6.00;;
67554;SDS011;54385;53.516;49.456;2023-02-18T07:38:23;12.07;;;6.43;;
67554;SDS011;54385;53.516;49.456;2023-02-18T07:40:54;12.55;;;6.45;;
67554;SDS011;54385;53.516;49.456;2023-02-18T07:44:03;12.88;;;5.93;;
67554;SDS011;54385;53.516;49.456;2023-02-18T07:46:53;13.55;;;5.82;;
67554;SDS011;54385;53.516;49.456;2023-02-18T07:49:42;14.52;;;6.47;;
67554;SDS011;54385;53.516;49.456;2023-02-18T07:52:45;16.30;;;7.65;;
67554;SDS011;54385;53.516;49.456;2023-02-18T07:55:37;14.13;;;6.57;;
67554;SDS011;54385;53.516;49.456;2023-02-18T07:58:35;13.32;;;6.50;;
67554;SDS011;54385;53.516;49.456;2023-02-18T08:05:13;15.13;;;6.47;;
67554;SDS011;54385;53.516;49.456;2023-02-18T08:08:00;11.85;;;6.30;;
67554;SDS011;54385;53.516;49.456;2023-02-18T08:10:37;13.05;;;6.63;;
67554;SDS011;54385;53.516;49.456;2023-02-18T08:13:39;15.38;;;7.32;;
67554;SDS011;54385;53.516;49.456;2023-02-18T08:20:18;13.18;;;6.90;;
67554;SDS011;54385;53.516;49.456;2023-02-18T08:23:27;15.95;;;6.80;;
67554;SDS011;54385;53.516;49.456;2023-02-18T08:26:48;11.25;;;6.38;;
67554;SDS011;54385;53.516;49.456;2023-02-18T08:32:00;9.43;;;5.45;;
67554;SDS011;54385;53.516;49.456;2023-02-18T08:34:35;11.32;;;6.10;;
67554;SDS011;54385;53.516;49.456;2023-02-18T08:37:23;15.70;;;7.15;;
67554;SDS011;54385;53.516;49.456;2023-02-18T08:43:58;12.95;;;7.63;;
67554;SDS011;54385;53.516;49.456;2023-02-18T08:50:19;11.88;;;6.63;;
67554;SDS011;54385;53.516;49.456;2023-02-18T08:54:04;12.45;;;6.47;;
67554;SDS011;54385;53.516;49.456;2023-02-18T08:59:42;11.25;;;6.03;;
67554;SDS011;54385;53.516;49.456;2023-02-18T09:02:27;13.18;;;5.95;;
67554;SDS011;54385;53.516;49.456;2023-02-18T09:05:30;14.77;;;7.05;;
67554;SDS011;54385;53.516;49.456;2023-02-18T09:08:23;18.23;;;7.38;;
67554;SDS011;54385;53.516;49.456;2023-02-18T09:11:34;15.50;;;7.57;;
67554;SDS011;54385;53.516;49.456;2023-02-18T09:14:12;16.35;;;7.45;;
67554;SDS011;54385;53.516;49.456;2023-02-18T09:17:01;13.55;;;6.88;;
67554;SDS011;54385;53.516;49.456;2023-02-18T09:19:56;13.18;;;6.82;;
67554;SDS011;54385;53.516;49.456;2023-02-18T09:26:25;11.68;;;6.30;;
67554;SDS011;54385;53.516;49.456;2023-02-18T09:29:24;17.20;;;8.05;;
67554;SDS011;54385;53.516;49.456;2023-02-18T09:32:30;15.32;;;6.93;;
67554;SDS011;54385;53.516;49.456;2023-02-18T09:36:09;14.65;;;6.75;;
67554;SDS011;54385;53.516;49.456;2023-02-18T09:38:53;13.43;;;7.15;;
67554;SDS011;54385;53.516;49.456;2023-02-18T09:45:26;12.95;;;6.75;;
67554;SDS011;54385;53.516;49.456;2023-02-18T09:48:49;18.48;;;8.65;;
67554;SDS011;54385;53.516;49.456;2023-02-18T09:52:05;17.33;;;8.50;;
67554;SDS011;54385;53.516;49.456;2023-02-18T09:55:02;16.92;;;8.50;;
67554;SDS011;54385;53.516;49.456;2023-02-18T09:58:28;15.20;;;7.63;;
67554;SDS011;54385;53.516;49.456;2023-02-18T10:02:08;13.95;;;7.30;;
67554;SDS011;54385;53.516;49.456;2023-02-18T10:09:43;17.27;;;7.68;;
67554;SDS011;54385;53.516;49.456;2023-02-18T10:13:23;12.00;;;6.45;;
67554;SDS011;54385;53.516;49.456;2023-02-18T10:16:51;15.63;;;8.38;;
67554;SDS011;54385;53.516;49.456;2023-02-18T10:19:28;19.50;;;8.55;;
67554;SDS011;54385;53.516;49.456;2023-02-18T10:21:59;15.52;;;8.25;;
67554;SDS011;54385;53.516;49.456;2023-02-18T10:24:32;13.52;;;8.00;;
67554;SDS011;54385;53.516;49.456;2023-02-18T10:47:21;17.27;;;9.40;;
67554;SDS011;54385;53.516;49.456;2023-02-18T10:50:40;21.00;;;10.10;;
67554;SDS011;54385;53.516;49.456;2023-02-18T10:53:39;20.05;;;9.40;;
67554;SDS011;54385;53.516;49.456;2023-02-18T10:59:31;17.30;;;9.20;;
67554;SDS011;54385;53.516;49.456;2023-02-18T11:02:12;16.98;;;9.55;;
67554;SDS011;54385;53.516;49.456;2023-02-18T11:08:50;13.82;;;8.30;;
67554;SDS011;54385;53.516;49.456;2023-02-18T11:12:12;19.63;;;8.55;;
67554;SDS011;54385;53.516;49.456;2023-02-18T11:17:54;18.65;;;10.10;;
67554;SDS011;54385;53.516;49.456;2023-02-18T11:20:35;20.15;;;9.43;;
67554;SDS011;54385;53.516;49.456;2023-02-18T11:26:01;21.05;;;8.98;;
67554;SDS011;54385;53.516;49.456;2023-02-18T11:28:54;15.13;;;7.50;;
67554;SDS011;54385;53.516;49.456;2023-02-18T11:31:50;17.15;;;8.90;;
67554;SDS011;54385;53.516;49.456;2023-02-18T11:34:33;20.17;;;9.10;;
67554;SDS011;54385;53.516;49.456;2023-02-18T11:37:08;16.80;;;9.02;;
67554;SDS011;54385;53.516;49.456;2023-02-18T11:43:26;18.35;;;8.98;;
67554;SDS011;54385;53.516;49.456;2023-02-18T11:46:09;15.85;;;9.90;;
67554;SDS011;54385;53.516;49.456;2023-02-18T11:48:55;18.42;;;9.52;;
67554;SDS011;54385;53.516;49.456;2023-02-18T11:51:38;20.10;;;8.93;;
67554;SDS011;54385;53.516;49.456;2023-02-18T11:57:14;17.83;;;8.90;;
67554;SDS011;54385;53.516;49.456;2023-02-18T12:09:54;18.55;;;10.07;;
67554;SDS011;54385;53.516;49.456;2023-02-18T12:12:26;17.25;;;9.43;;
67554;SDS011;54385;53.516;49.456;2023-02-18T12:15:07;20.35;;;9.88;;
67554;SDS011;54385;53.516;49.456;2023-02-18T12:18:38;17.48;;;9.40;;
67554;SDS011;54385;53.516;49.456;2023-02-18T12:23:36;19.13;;;9.57;;
67554;SDS011;54385;53.516;49.456;2023-02-18T12:32:28;13.80;;;8.70;;
67554;SDS011;54385;53.516;49.456;2023-02-18T12:45:51;24.33;;;9.85;;
67554;SDS011;54385;53.516;49.456;2023-02-18T12:58:30;22.33;;;10.63;;
67554;SDS011;54385;53.516;49.456;2023-02-18T13:01:45;21.52;;;10.48;;
67554;SDS011;54385;53.516;49.456;2023-02-18T13:15:38;25.35;;;12.55;;
67554;SDS011;54385;53.516;49.456;2023-02-18T13:18:30;22.80;;;12.25;;
67554;SDS011;54385;53.516;49.456;2023-02-18T13:21:10;24.52;;;12.25;;
67554;SDS011;54385;53.516;49.456;2023-02-18T13:23:42;22.85;;;11.27;;
67554;SDS011;54385;53.516;49.456;2023-02-18T13:26:24;23.40;;;10.98;;
67554;SDS011;54385;53.516;49.456;2023-02-18T13:29:15;23.75;;;12.75;;
67554;SDS011;54385;53.516;49.456;2023-02-18T13:34:57;24.13;;;11.40;;
67554;SDS011;54385;53.516;49.456;2023-02-18T13:37:44;25.45;;;10.65;;
67554;SDS011;54385;53.516;49.456;2023-02-18T13:40:44;24.63;;;11.77;;
67554;SDS011;54385;53.516;49.456;2023-02-18T13:43:20;24.23;;;11.05;;
67554;SDS011;54385;53.516;49.456;2023-02-18T13:50:27;23.73;;;11.23;;
67554;SDS011;54385;53.516;49.456;2023-02-18T13:57:18;22.70;;;10.38;;
67554;SDS011;54385;53.516;49.456;2023-02-18T14:00:04;24.15;;;12.02;;
67554;SDS011;54385;53.516;49.456;2023-02-18T14:20:35;20.30;;;10.10;;
67554;SDS011;54385;53.516;49.456;2023-02-18T14:26:42;27.10;;;12.25;;
67554;SDS011;54385;53.516;49.456;2023-02-18T14:30:04;26.70;;;13.52;;
67554;SDS011;54385;53.516;49.456;2023-02-18T14:32:43;27.88;;;13.27;;
67554;SDS011;54385;53.516;49.456;2023-02-18T14:38:52;34.75;;;15.55;;
67554;SDS011;54385;53.516;49.456;2023-02-18T14:51:43;32.60;;;13.32;;
67554;SDS011;54385;53.516;49.456;2023-02-18T14:54:25;35.15;;;15.32;;
67554;SDS011;54385;53.516;49.456;2023-02-18T14:58:02;31.90;;;15.70;;
67554;SDS011;54385;53.516;49.456;2023-02-18T15:01:34;43.17;;;16.73;;
67554;SDS011;54385;53.516;49.456;2023-02-18T15:04:37;48.20;;;18.77;;
67554;SDS011;54385;53.516;49.456;2023-02-18T15:07:54;26.88;;;12.40;;
67554;SDS011;54385;53.516;49.456;2023-02-18T15:21:31;32.75;;;12.55;;
67554;SDS011;54385;53.516;49.456;2023-02-18T15:27:29;33.00;;;13.25;;
67554;SDS011;54385;53.516;49.456;2023-02-18T15:34:44;30.85;;;13.85;;
67554;SDS011;54385;53.516;49.456;2023-02-18T15:38:25;27.67;;;12.02;;
67554;SDS011;54385;53.516;49.456;2023-02-18T15:53:29;32.00;;;12.23;;
67554;SDS011;54385;53.516;49.456;2023-02-18T15:56:41;22.35;;;10.93;;
67554;SDS011;54385;53.516;49.456;2023-02-18T16:12:12;31.35;;;13.32;;
67554;SDS011;54385;53.516;49.456;2023-02-18T16:19:31;36.50;;;12.45;;
67554;SDS011;54385;53.516;49.456;2023-02-18T16:22:51;28.45;;;12.82;;
67554;SDS011;54385;53.516;49.456;2023-02-18T16:25:49;29.55;;;14.98;;
67554;SDS011;54385;53.516;49.456;2023-02-18T16:29:12;34.20;;;11.90;;
67554;SDS011;54385;53.516;49.456;2023-02-18T16:32:45;25.15;;;11.60;;
67554;SDS011;54385;53.516;49.456;2023-02-18T16:39:01;26.55;;;11.40;;
67554;SDS011;54385;53.516;49.456;2023-02-18T16:41:56;27.33;;;10.88;;
67554;SDS011;54385;53.516;49.456;2023-02-18T16:44:31;21.08;;;10.77;;
67554;SDS011;54385;53.516;49.456;2023-02-18T16:47:01;23.30;;;11.35;;
67554;SDS011;54385;53.516;49.456;2023-02-18T16:49:57;26.88;;;12.25;;
67554;SDS011;54385;53.516;49.456;2023-02-18T16:56:30;18.25;;;10.23;;
67554;SDS011;54385;53.516;49.456;2023-02-18T17:00:05;21.45;;;11.45;;
67554;SDS011;54385;53.516;49.456;2023-02-18T17:03:08;29.15;;;11.93;;
67554;SDS011;54385;53.516;49.456;2023-02-18T17:05:58;24.30;;;10.82;;
67554;SDS011;54385;53.516;49.456;2023-02-18T17:08:57;31.65;;;16.55;;
67554;SDS011;54385;53.516;49.456;2023-02-18T17:12:16;30.77;;;16.70;;
67554;SDS011;54385;53.516;49.456;2023-02-18T17:18:30;34.08;;;14.95;;
67554;SDS011;54385;53.516;49.456;2023-02-18T17:21:10;35.60;;;15.82;;
67554;SDS011;54385;53.516;49.456;2023-02-18T17:23:56;44.53;;;19.40;;
67554;SDS011;54385;53.516;49.456;2023-02-18T17:26:33;34.45;;;15.68;;
67554;SDS011;54385;53.516;49.456;2023-02-18T17:29:11;31.35;;;14.70;;
67554;SDS011;54385;53.516;49.456;2023-02-18T17:31:45;32.00;;;16.95;;
67554;SDS011;54385;53.516;49.456;2023-02-18T17:34:43;37.88;;;16.02;;
67554;SDS011;54385;53.516;49.456;2023-02-18T17:37:36;25.60;;;14.20;;
67554;SDS011;54385;53.516;49.456;2023-02-18T17:40:03;25.58;;;12.57;;
67554;SDS011;54385;53.516;49.456;2023-02-18T17:43:09;38.05;;;13.63;;
67554;SDS011;54385;53.516;49.456;2023-02-18T17:45:52;30.50;;;13.73;;
67554;SDS011;54385;53.516;49.456;2023-02-18T17:48:22;32.38;;;11.65;;
67554;SDS011;54385;53.516;49.456;2023-02-18T17:50:52;25.95;;;11.95;;
67554;SDS011;54385;53.516;49.456;2023-02-18T17:57:07;20.95;;;11.40;;
67554;SDS011;54385;53.516;49.456;2023-02-18T17:59:46;26.75;;;12.18;;
67554;SDS011;54385;53.516;49.456;2023-02-18T18:02:27;27.23;;;11.90;;
67554;SDS011;54385;53.516;49.456;2023-02-18T18:04:55;25.52;;;12.48;;
67554;SDS011;54385;53.516;49.456;2023-02-18T18:07:32;21.05;;;11.98;;
67554;SDS011;54385;53.516;49.456;2023-02-18T18:09:58;26.08;;;12.98;;
67554;SDS011;54385;53.516;49.456;2023-02-18T18:12:38;30.02;;;13.50;;
67554;SDS011;54385;53.516;49.456;2023-02-18T18:15:22;28.40;;;13.82;;
67554;SDS011;54385;53.516;49.456;2023-02-18T18:17:54;32.33;;;12.75;;
67554;SDS011;54385;53.516;49.456;2023-02-18T18:20:26;27.55;;;12.02;;
67554;SDS011;54385;53.516;49.456;2023-02-18T18:22:55;21.95;;;11.48;;
67554;SDS011;54385;53.516;49.456;2023-02-18T18:25:46;24.60;;;11.43;;
67554;SDS011;54385;53.516;49.456;2023-02-18T18:28:41;32.10;;;12.93;;
67554;SDS011;54385;53.516;49.456;2023-02-18T18:31:15;25.05;;;12.10;;
67554;SDS011;54385;53.516;49.456;2023-02-18T18:33:59;24.08;;;11.55;;
67554;SDS011;54385;53.516;49.456;2023-02-18T18:36:36;24.73;;;11.73;;
67554;SDS011;54385;53.516;49.456;2023-02-18T18:39:07;31.77;;;12.77;;
67554;SDS011;54385;53.516;49.456;2023-02-18T18:41:35;25.65;;;12.43;;
67554;SDS011;54385;53.516;49.456;2023-02-18T18:44:02;25.73;;;11.40;;
67554;SDS011;54385;53.516;49.456;2023-02-18T18:46:34;23.80;;;10.93;;
67554;SDS011;54385;53.516;49.456;2023-02-18T18:49:17;22.35;;;10.70;;
67554;SDS011;54385;53.516;49.456;2023-02-18T18:51:54;25.10;;;12.75;;
67554;SDS011;54385;53.516;49.456;2023-02-18T18:54:23;25.20;;;10.98;;
67554;SDS011;54385;53.516;49.456;2023-02-18T18:56:53;25.88;;;11.15;;
67554;SDS011;54385;53.516;49.456;2023-02-18T18:59:31;27.75;;;12.20;;
67554;SDS011;54385;53.516;49.456;2023-02-18T19:01:57;23.20;;;11.38;;
67554;SDS011;54385;53.516;49.456;2023-02-18T19:04:33;32.35;;;12.77;;
67554;SDS011;54385;53.516;49.456;2023-02-18T19:07:07;25.50;;;11.77;;
67554;SDS011;54385;53.516;49.456;2023-02-18T19:09:50;22.42;;;10.55;;
67554;SDS011;54385;53.516;49.456;2023-02-18T19:12:24;23.27;;;10.98;;
67554;SDS011;54385;53.516;49.456;2023-02-18T19:14:50;29.63;;;12.77;;
67554;SDS011;54385;53.516;49.456;2023-02-18T19:20:16;26.25;;;10.73;;
67554;SDS011;54385;53.516;49.456;2023-02-18T19:22:47;28.30;;;11.15;;
67554;SDS011;54385;53.516;49.456;2023-02-18T19:25:17;21.65;;;10.90;;
67554;SDS011;54385;53.516;49.456;2023-02-18T19:27:45;26.73;;;11.63;;
67554;SDS011;54385;53.516;49.456;2023-02-18T19:30:14;24.40;;;10.63;;
67554;SDS011;54385;53.516;49.456;2023-02-18T19:32:47;26.90;;;11.38;;
67554;SDS011;54385;53.516;49.456;2023-02-18T19:35:33;28.92;;;11.13;;
67554;SDS011;54385;53.516;49.456;2023-02-18T19:38:11;26.90;;;12.55;;
67554;SDS011;54385;53.516;49.456;2023-02-18T19:40:48;27.17;;;12.15;;
67554;SDS011;54385;53.516;49.456;2023-02-18T19:43:14;29.83;;;12.13;;
67554;SDS011;54385;53.516;49.456;2023-02-18T19:45:50;28.75;;;11.93;;
67554;SDS011;54385;53.516;49.456;2023-02-18T19:48:17;27.25;;;12.18;;
67554;SDS011;54385;53.516;49.456;2023-02-18T19:50:45;22.30;;;11.93;;
67554;SDS011;54385;53.516;49.456;2023-02-18T19:53:19;26.65;;;11.48;;
67554;SDS011;54385;53.516;49.456;2023-02-18T19:56:00;23.23;;;11.77;;
67554;SDS011;54385;53.516;49.456;2023-02-18T19:58:30;24.95;;;12.07;;
67554;SDS011;54385;53.516;49.456;2023-02-18T20:00:57;24.38;;;11.50;;
67554;SDS011;54385;53.516;49.456;2023-02-18T20:03:26;28.23;;;12.60;;
67554;SDS011;54385;53.516;49.456;2023-02-18T20:05:54;22.48;;;12.35;;
67554;SDS011;54385;53.516;49.456;2023-02-18T20:08:20;22.50;;;11.65;;
67554;SDS011;54385;53.516;49.456;2023-02-18T20:10:58;27.02;;;12.57;;
67554;SDS011;54385;53.516;49.456;2023-02-18T20:13:25;28.25;;;13.13;;
67554;SDS011;54385;53.516;49.456;2023-02-18T20:15:52;30.52;;;12.65;;
67554;SDS011;54385;53.516;49.456;2023-02-18T20:18:18;27.75;;;12.60;;
67554;SDS011;54385;53.516;49.456;2023-02-18T20:20:48;27.55;;;12.25;;
67554;SDS011;54385;53.516;49.456;2023-02-18T20:23:15;25.73;;;13.60;;
67554;SDS011;54385;53.516;49.456;2023-02-18T20:25:41;23.60;;;10.45;;
67554;SDS011;54385;53.516;49.456;2023-02-18T20:28:08;27.58;;;13.45;;
67554;SDS011;54385;53.516;49.456;2023-02-18T20:30:35;25.95;;;12.20;;